• Join FlightAware (Why Join?)
  • Login
  • US Flag 
05:09PM EDT


 

Airport Tracker/Info


-or-


 

Live Flight TrackerFlight Track Log ✈ BOE22 ✈ 22-Apr-2013 ✈ KYKM - KBFI

Flight Track Log - Related Links

Times and Time Zones

All times are in EDT time to prevent confusion due to time zone crossing. See the BOE22 flight status page for this flight to view local times or setup timezone preferences in your user account.

Time Position Orientation Groundspeed Altitude Reporting Facility
EDT Latitude Longitude Course Direction KTS MPH feet Rate Location/Type
01:55PM 46.6611 -120.6697 317° Northwest 270 311 9,300  Level Seattle Center
01:56PM 46.7097 -120.7614 308° West 285 328 12,600 1,800 Climbing Seattle Center
01:57PM 46.7597 -120.8556 308° West 293 337 13,000 120 Climbing Seattle Center
01:58PM 46.8278 -120.9428 319° Northwest 333 383 12,900 -540 Descending Seattle Center
01:59PM 46.9317 -120.9517 357° North 353 406 12,000 -480 Descending Seattle Center
02:00PM 46.7640 -120.8707 304° West  Level FlightAware Approximate
02:00PM 47.0272 -120.9589 357° North 336 387 12,000  Level Seattle Center
02:01PM 47.0972 -120.9900 343° North 309 356 11,000 -480 Descending Seattle Center
02:02PM 47.1056 -121.1069 276° West 310 357 11,100  Climbing Seattle Center
02:03PM 47.0956 -121.2322 263° West 313 360 11,100  Level Seattle Center
02:05PM 47.0825 -121.4047 264° West 312 359 11,100  Level Seattle Center
02:05PM 47.0750 -121.5036 264° West 295 339 11,100  Level Seattle Center
02:06PM 47.1114 -121.5992 299° West 278 320 11,100 -480 Level Seattle Center
02:07PM 47.1550 -121.6928 304° West 280 322 10,200 -1,380 Descending Seattle Center
02:08PM 47.1975 -121.7867 304° West 278 320 8,400 -1,920 Descending Seattle Center
02:09PM 47.2356 -121.8875 299° West 275 316 6,500 -1,320 Descending Seattle Center
02:10PM 47.2700 -121.9861 297° West 270 311 5,900 -900 Descending Seattle Center
02:11PM 47.3000 -122.0772 296° West 243 280 4,700 -1,140 Descending Seattle Center
02:12PM 47.3428 -122.1486 312° West 209 241 3,700 -840 Descending Seattle Center
02:13PM 47.3881 -122.1858 331° Northwest 175 201 3,100 -780 Descending Seattle Center
02:15PM 47.4278 -122.2194 330° Northwest 141 162 2,100 -720 Descending Seattle Center
02:16PM 47.4558 -122.2417 332° Northwest 122 140 1,600 -720 Descending Seattle Center
02:17PM 47.4861 -122.2658 332° Northwest 112 129 800 -720 Descending Seattle Center
02:18PM 47.5117 -122.2878 330° Northwest 117 135 300 -360 Descending Seattle Center
02:19PM 47.5400 -122.3106 332° Northwest 116 133 100 -240 Descending Seattle Center